sensor_id;sensor_type;location;lat;lon;timestamp;pressure;altitude;pressure_sealevel;temperature;humidity
71889;BME280;59762;49.998;14.858;2022-09-12T00:01:21;97462.50;;;12.36;100.00
71889;BME280;59762;49.998;14.858;2022-09-12T00:03:54;97463.69;;;12.40;100.00
71889;BME280;59762;49.998;14.858;2022-09-12T00:06:32;97451.13;;;12.41;100.00
71889;BME280;59762;49.998;14.858;2022-09-12T00:09:01;97454.63;;;12.41;100.00
71889;BME280;59762;49.998;14.858;2022-09-12T00:11:28;97446.97;;;12.45;100.00
71889;BME280;59762;49.998;14.858;2022-09-12T00:13:59;97448.00;;;12.44;100.00
71889;BME280;59762;49.998;14.858;2022-09-12T00:16:27;97444.31;;;12.45;100.00
71889;BME280;59762;49.998;14.858;2022-09-12T00:18:53;97439.97;;;12.44;100.00
71889;BME280;59762;49.998;14.858;2022-09-12T00:21:20;97433.81;;;12.43;100.00
71889;BME280;59762;49.998;14.858;2022-09-12T00:23:46;97441.25;;;12.41;100.00
71889;BME280;59762;49.998;14.858;2022-09-12T00:26:13;97440.81;;;12.44;100.00
71889;BME280;59762;49.998;14.858;2022-09-12T00:28:40;97437.78;;;12.41;100.00
71889;BME280;59762;49.998;14.858;2022-09-12T00:31:08;97449.50;;;12.40;100.00
71889;BME280;59762;49.998;14.858;2022-09-12T00:33:35;97451.81;;;12.36;100.00
71889;BME280;59762;49.998;14.858;2022-09-12T00:36:05;97452.63;;;12.36;100.00
71889;BME280;59762;49.998;14.858;2022-09-12T00:38:31;97453.06;;;12.33;100.00
71889;BME280;59762;49.998;14.858;2022-09-12T00:40:57;97461.69;;;12.35;100.00
71889;BME280;59762;49.998;14.858;2022-09-12T00:45:55;97452.25;;;12.33;100.00
71889;BME280;59762;49.998;14.858;2022-09-12T00:48:28;97451.06;;;12.29;100.00
71889;BME280;59762;49.998;14.858;2022-09-12T00:50:56;97452.69;;;12.30;100.00
71889;BME280;59762;49.998;14.858;2022-09-12T00:53:22;97451.69;;;12.31;100.00
71889;BME280;59762;49.998;14.858;2022-09-12T00:55:49;97455.59;;;12.28;100.00
71889;BME280;59762;49.998;14.858;2022-09-12T00:58:27;97456.41;;;12.29;100.00
71889;BME280;59762;49.998;14.858;2022-09-12T01:00:56;97453.16;;;12.27;100.00
71889;BME280;59762;49.998;14.858;2022-09-12T01:03:22;97445.34;;;12.25;100.00
71889;BME280;59762;49.998;14.858;2022-09-12T01:05:58;97448.63;;;12.27;100.00
71889;BME280;59762;49.998;14.858;2022-09-12T01:08:27;97448.41;;;12.29;100.00
71889;BME280;59762;49.998;14.858;2022-09-12T01:10:54;97449.00;;;12.31;100.00
71889;BME280;59762;49.998;14.858;2022-09-12T01:13:21;97444.69;;;12.30;100.00
71889;BME280;59762;49.998;14.858;2022-09-12T01:15:47;97450.84;;;12.30;100.00
71889;BME280;59762;49.998;14.858;2022-09-12T01:21:08;97446.19;;;12.26;100.00
71889;BME280;59762;49.998;14.858;2022-09-12T01:27:14;97436.78;;;12.23;100.00
71889;BME280;59762;49.998;14.858;2022-09-12T01:35:12;97438.31;;;12.31;100.00
71889;BME280;59762;49.998;14.858;2022-09-12T01:38:08;97439.47;;;12.35;100.00
71889;BME280;59762;49.998;14.858;2022-09-12T01:40:46;97440.66;;;12.39;100.00
71889;BME280;59762;49.998;14.858;2022-09-12T01:46:18;97422.69;;;12.46;100.00
71889;BME280;59762;49.998;14.858;2022-09-12T01:48:47;97428.84;;;12.47;99.45
71889;BME280;59762;49.998;14.858;2022-09-12T01:51:26;97421.06;;;12.45;98.82
71889;BME280;59762;49.998;14.858;2022-09-12T01:54:11;97424.56;;;12.46;99.12
71889;BME280;59762;49.998;14.858;2022-09-12T01:56:41;97426.03;;;12.42;99.69
71889;BME280;59762;49.998;14.858;2022-09-12T01:59:31;97423.38;;;12.42;98.98
71889;BME280;59762;49.998;14.858;2022-09-12T02:02:45;97427.78;;;12.36;100.00
71889;BME280;59762;49.998;14.858;2022-09-12T02:07:40;97417.78;;;12.31;99.99
71889;BME280;59762;49.998;14.858;2022-09-12T02:10:15;97414.59;;;12.23;100.00
71889;BME280;59762;49.998;14.858;2022-09-12T02:12:52;97421.63;;;12.17;100.00
71889;BME280;59762;49.998;14.858;2022-09-12T02:15:22;97420.25;;;12.15;100.00
71889;BME280;59762;49.998;14.858;2022-09-12T02:17:49;97417.13;;;12.18;100.00
71889;BME280;59762;49.998;14.858;2022-09-12T02:20:25;97414.66;;;12.16;99.91
71889;BME280;59762;49.998;14.858;2022-09-12T02:22:53;97422.53;;;12.11;100.00
71889;BME280;59762;49.998;14.858;2022-09-12T02:25:21;97417.19;;;12.11;100.00
71889;BME280;59762;49.998;14.858;2022-09-12T02:27:51;97416.97;;;12.12;100.00
71889;BME280;59762;49.998;14.858;2022-09-12T02:30:19;97420.09;;;12.09;100.00
71889;BME280;59762;49.998;14.858;2022-09-12T02:36:09;97417.44;;;12.09;100.00
71889;BME280;59762;49.998;14.858;2022-09-12T02:38:24;97414.63;;;12.04;100.00
71889;BME280;59762;49.998;14.858;2022-09-12T02:40:53;97414.47;;;11.99;100.00
71889;BME280;59762;49.998;14.858;2022-09-12T02:43:19;97414.69;;;11.98;100.00
71889;BME280;59762;49.998;14.858;2022-09-12T02:45:45;97414.69;;;11.98;100.00
71889;BME280;59762;49.998;14.858;2022-09-12T02:48:14;97422.13;;;11.96;100.00
71889;BME280;59762;49.998;14.858;2022-09-12T02:50:43;97411.28;;;11.91;100.00
71889;BME280;59762;49.998;14.858;2022-09-12T02:53:09;97418.47;;;11.90;100.00
71889;BME280;59762;49.998;14.858;2022-09-12T02:55:37;97405.41;;;11.82;100.00
71889;BME280;59762;49.998;14.858;2022-09-12T02:58:05;97403.94;;;11.86;100.00
71889;BME280;59762;49.998;14.858;2022-09-12T03:00:38;97407.50;;;11.80;100.00
71889;BME280;59762;49.998;14.858;2022-09-12T03:12:27;97417.41;;;11.54;100.00
71889;BME280;59762;49.998;14.858;2022-09-12T03:19:53;97421.63;;;11.44;100.00
71889;BME280;59762;49.998;14.858;2022-09-12T03:22:50;97421.00;;;11.42;100.00
71889;BME280;59762;49.998;14.858;2022-09-12T03:28:06;97415.75;;;11.35;100.00
71889;BME280;59762;49.998;14.858;2022-09-12T03:30:42;97406.56;;;11.31;100.00
71889;BME280;59762;49.998;14.858;2022-09-12T03:33:22;97411.66;;;11.32;100.00
71889;BME280;59762;49.998;14.858;2022-09-12T03:35:48;97411.75;;;11.26;100.00
71889;BME280;59762;49.998;14.858;2022-09-12T03:38:14;97409.94;;;11.20;100.00
71889;BME280;59762;49.998;14.858;2022-09-12T03:40:41;97409.94;;;11.20;100.00
71889;BME280;59762;49.998;14.858;2022-09-12T03:43:07;97400.78;;;11.16;100.00
71889;BME280;59762;49.998;14.858;2022-09-12T03:45:34;97409.63;;;11.09;100.00
71889;BME280;59762;49.998;14.858;2022-09-12T03:48:00;97406.22;;;11.02;100.00
71889;BME280;59762;49.998;14.858;2022-09-12T03:50:26;97416.69;;;10.97;100.00
71889;BME280;59762;49.998;14.858;2022-09-12T03:52:52;97416.38;;;10.87;100.00
71889;BME280;59762;49.998;14.858;2022-09-12T03:55:17;97426.25;;;10.80;100.00
71889;BME280;59762;49.998;14.858;2022-09-12T03:57:43;97420.19;;;10.73;100.00
71889;BME280;59762;49.998;14.858;2022-09-12T04:00:10;97421.81;;;10.74;100.00
71889;BME280;59762;49.998;14.858;2022-09-12T04:02:36;97418.16;;;10.68;100.00
71889;BME280;59762;49.998;14.858;2022-09-12T04:05:02;97421.00;;;10.67;100.00
71889;BME280;59762;49.998;14.858;2022-09-12T04:07:28;97423.09;;;10.65;100.00
71889;BME280;59762;49.998;14.858;2022-09-12T04:09:53;97430.03;;;10.66;100.00
71889;BME280;59762;49.998;14.858;2022-09-12T04:12:19;97421.88;;;10.60;100.00
71889;BME280;59762;49.998;14.858;2022-09-12T04:14:45;97424.94;;;10.64;100.00
71889;BME280;59762;49.998;14.858;2022-09-12T04:17:11;97424.72;;;10.66;100.00
71889;BME280;59762;49.998;14.858;2022-09-12T04:19:37;97422.22;;;10.71;100.00
71889;BME280;59762;49.998;14.858;2022-09-12T04:22:03;97429.78;;;10.74;100.00
71889;BME280;59762;49.998;14.858;2022-09-12T04:24:28;97424.47;;;10.74;100.00
71889;BME280;59762;49.998;14.858;2022-09-12T04:26:54;97429.63;;;10.69;100.00
71889;BME280;59762;49.998;14.858;2022-09-12T04:29:20;97433.34;;;10.61;100.00
71889;BME280;59762;49.998;14.858;2022-09-12T04:31:46;97432.53;;;10.60;100.00
71889;BME280;59762;49.998;14.858;2022-09-12T04:34:12;97431.13;;;10.58;100.00
71889;BME280;59762;49.998;14.858;2022-09-12T04:36:38;97433.59;;;10.59;100.00
71889;BME280;59762;49.998;14.858;2022-09-12T04:39:04;97428.84;;;10.61;100.00
71889;BME280;59762;49.998;14.858;2022-09-12T04:41:33;97428.66;;;10.63;100.00
71889;BME280;59762;49.998;14.858;2022-09-12T04:44:05;97424.13;;;10.64;100.00
71889;BME280;59762;49.998;14.858;2022-09-12T04:46:34;97422.28;;;10.64;100.00
71889;BME280;59762;49.998;14.858;2022-09-12T04:49:00;97423.50;;;10.68;100.00
71889;BME280;59762;49.998;14.858;2022-09-12T04:51:28;97429.38;;;10.77;100.00
71889;BME280;59762;49.998;14.858;2022-09-12T04:53:58;97418.06;;;10.81;100.00
71889;BME280;59762;49.998;14.858;2022-09-12T04:56:25;97428.63;;;10.95;100.00
71889;BME280;59762;49.998;14.858;2022-09-12T04:58:51;97427.72;;;11.07;100.00
71889;BME280;59762;49.998;14.858;2022-09-12T05:01:18;97427.78;;;11.19;100.00
71889;BME280;59762;49.998;14.858;2022-09-12T05:03:45;97427.50;;;11.27;100.00
71889;BME280;59762;49.998;14.858;2022-09-12T05:06:23;97426.44;;;11.35;100.00
71889;BME280;59762;49.998;14.858;2022-09-12T05:08:49;97427.38;;;11.41;100.00
71889;BME280;59762;49.998;14.858;2022-09-12T05:11:20;97428.34;;;11.46;100.00
71889;BME280;59762;49.998;14.858;2022-09-12T05:13:46;97426.00;;;11.56;100.00
71889;BME280;59762;49.998;14.858;2022-09-12T05:16:14;97429.22;;;11.65;100.00
71889;BME280;59762;49.998;14.858;2022-09-12T05:18:42;97434.09;;;11.68;100.00
71889;BME280;59762;49.998;14.858;2022-09-12T05:21:11;97431.50;;;11.80;100.00
71889;BME280;59762;49.998;14.858;2022-09-12T05:23:37;97431.38;;;11.93;100.00
71889;BME280;59762;49.998;14.858;2022-09-12T05:26:04;97433.38;;;11.98;100.00
71889;BME280;59762;49.998;14.858;2022-09-12T05:28:32;97438.19;;;12.07;100.00
71889;BME280;59762;49.998;14.858;2022-09-12T05:31:12;97444.72;;;12.11;100.00
71889;BME280;59762;49.998;14.858;2022-09-12T05:33:40;97448.06;;;12.07;100.00
71889;BME280;59762;49.998;14.858;2022-09-12T05:36:10;97451.53;;;12.07;100.00
71889;BME280;59762;49.998;14.858;2022-09-12T05:38:36;97460.00;;;12.04;100.00
71889;BME280;59762;49.998;14.858;2022-09-12T05:43:33;97463.25;;;12.06;100.00
71889;BME280;59762;49.998;14.858;2022-09-12T05:46:04;97454.22;;;12.07;100.00
71889;BME280;59762;49.998;14.858;2022-09-12T05:48:30;97457.91;;;12.06;100.00
71889;BME280;59762;49.998;14.858;2022-09-12T05:50:59;97458.88;;;12.12;100.00
71889;BME280;59762;49.998;14.858;2022-09-12T05:53:26;97465.63;;;12.15;100.00
71889;BME280;59762;49.998;14.858;2022-09-12T05:58:33;97461.63;;;12.24;100.00
71889;BME280;59762;49.998;14.858;2022-09-12T06:01:10;97463.84;;;12.27;100.00
71889;BME280;59762;49.998;14.858;2022-09-12T06:03:41;97459.69;;;12.31;100.00
71889;BME280;59762;49.998;14.858;2022-09-12T06:06:08;97460.41;;;12.38;100.00
71889;BME280;59762;49.998;14.858;2022-09-12T06:08:34;97459.59;;;12.37;100.00
71889;BME280;59762;49.998;14.858;2022-09-12T06:11:02;97462.50;;;12.36;100.00
71889;BME280;59762;49.998;14.858;2022-09-12T06:13:31;97466.50;;;12.45;100.00
71889;BME280;59762;49.998;14.858;2022-09-12T06:16:02;97461.16;;;12.45;100.00
71889;BME280;59762;49.998;14.858;2022-09-12T06:18:28;97464.75;;;12.51;100.00
71889;BME280;59762;49.998;14.858;2022-09-12T06:20:53;97459.34;;;12.57;100.00
71889;BME280;59762;49.998;14.858;2022-09-12T06:23:19;97464.50;;;12.71;100.00
71889;BME280;59762;49.998;14.858;2022-09-12T06:25:46;97461.00;;;12.70;100.00
71889;BME280;59762;49.998;14.858;2022-09-12T06:28:12;97463.13;;;12.80;100.00
71889;BME280;59762;49.998;14.858;2022-09-12T06:30:38;97460.09;;;12.88;100.00
71889;BME280;59762;49.998;14.858;2022-09-12T06:33:03;97459.34;;;12.99;100.00
71889;BME280;59762;49.998;14.858;2022-09-12T06:35:29;97459.00;;;13.07;100.00
71889;BME280;59762;49.998;14.858;2022-09-12T06:37:55;97457.72;;;13.10;100.00
71889;BME280;59762;49.998;14.858;2022-09-12T06:40:20;97461.06;;;13.24;100.00
71889;BME280;59762;49.998;14.858;2022-09-12T06:42:46;97461.88;;;13.48;99.06
71889;BME280;59762;49.998;14.858;2022-09-12T06:45:11;97462.56;;;13.67;98.68
71889;BME280;59762;49.998;14.858;2022-09-12T06:47:38;97465.47;;;13.77;96.04
71889;BME280;59762;49.998;14.858;2022-09-12T06:50:04;97463.81;;;13.76;95.91
71889;BME280;59762;49.998;14.858;2022-09-12T06:52:30;97460.78;;;13.96;96.69
71889;BME280;59762;49.998;14.858;2022-09-12T06:54:55;97472.75;;;14.17;96.69
71889;BME280;59762;49.998;14.858;2022-09-12T06:57:21;97468.88;;;14.24;93.39
71889;BME280;59762;49.998;14.858;2022-09-12T06:59:48;97472.25;;;14.20;92.83
71889;BME280;59762;49.998;14.858;2022-09-12T07:02:15;97471.91;;;14.16;93.30
71889;BME280;59762;49.998;14.858;2022-09-12T07:04:40;97473.56;;;14.17;93.54
71889;BME280;59762;49.998;14.858;2022-09-12T07:07:06;97468.66;;;14.14;93.89
71889;BME280;59762;49.998;14.858;2022-09-12T07:09:31;97468.06;;;14.24;93.54
71889;BME280;59762;49.998;14.858;2022-09-12T07:11:57;97472.91;;;14.50;94.21
71889;BME280;59762;49.998;14.858;2022-09-12T07:14:22;97469.50;;;14.55;92.75
71889;BME280;59762;49.998;14.858;2022-09-12T07:16:50;97471.47;;;14.59;93.05
71889;BME280;59762;49.998;14.858;2022-09-12T07:19:15;97470.81;;;14.52;91.12
71889;BME280;59762;49.998;14.858;2022-09-12T07:21:41;97480.47;;;14.42;91.52
71889;BME280;59762;49.998;14.858;2022-09-12T07:24:08;97480.66;;;14.23;92.15
71889;BME280;59762;49.998;14.858;2022-09-12T07:26:34;97477.69;;;14.36;91.61
71889;BME280;59762;49.998;14.858;2022-09-12T07:29:00;97476.63;;;14.37;93.54
71889;BME280;59762;49.998;14.858;2022-09-12T07:31:27;97480.81;;;14.57;91.09
71889;BME280;59762;49.998;14.858;2022-09-12T07:33:53;97486.13;;;14.69;92.16
71889;BME280;59762;49.998;14.858;2022-09-12T07:36:20;97485.16;;;14.75;91.43
71889;BME280;59762;49.998;14.858;2022-09-12T07:38:47;97478.72;;;14.87;90.19
71889;BME280;59762;49.998;14.858;2022-09-12T07:41:15;97473.34;;;14.87;88.90
71889;BME280;59762;49.998;14.858;2022-09-12T07:43:41;97475.97;;;14.71;90.17
71889;BME280;59762;49.998;14.858;2022-09-12T07:46:07;97477.38;;;14.90;91.68
71889;BME280;59762;49.998;14.858;2022-09-12T07:48:33;97481.94;;;14.89;90.09
71889;BME280;59762;49.998;14.858;2022-09-12T07:51:01;97483.81;;;14.89;90.12
71889;BME280;59762;49.998;14.858;2022-09-12T07:53:33;97486.53;;;15.23;90.24
71889;BME280;59762;49.998;14.858;2022-09-12T07:55:59;97487.50;;;15.17;89.36
71889;BME280;59762;49.998;14.858;2022-09-12T07:58:27;97499.25;;;15.27;87.71
71889;BME280;59762;49.998;14.858;2022-09-12T08:00:53;97492.38;;;15.53;85.24
71889;BME280;59762;49.998;14.858;2022-09-12T08:03:19;97490.72;;;15.64;86.00
71889;BME280;59762;49.998;14.858;2022-09-12T08:05:44;97483.69;;;15.63;84.38
71889;BME280;59762;49.998;14.858;2022-09-12T08:08:10;97498.25;;;15.84;83.26
71889;BME280;59762;49.998;14.858;2022-09-12T08:10:36;97484.72;;;15.62;81.48
71889;BME280;59762;49.998;14.858;2022-09-12T08:13:01;97501.03;;;15.55;82.66
71889;BME280;59762;49.998;14.858;2022-09-12T08:15:28;97496.22;;;15.74;83.61
71889;BME280;59762;49.998;14.858;2022-09-12T08:17:55;97497.91;;;15.97;82.32
71889;BME280;59762;49.998;14.858;2022-09-12T08:20:21;97494.75;;;15.83;81.74
71889;BME280;59762;49.998;14.858;2022-09-12T08:22:46;97499.31;;;15.49;82.25
71889;BME280;59762;49.998;14.858;2022-09-12T08:25:12;97504.91;;;15.48;85.21
71889;BME280;59762;49.998;14.858;2022-09-12T08:27:37;97501.97;;;15.49;83.87
71889;BME280;59762;49.998;14.858;2022-09-12T08:30:04;97502.81;;;15.67;81.70
71889;BME280;59762;49.998;14.858;2022-09-12T08:32:33;97496.50;;;15.73;83.25
71889;BME280;59762;49.998;14.858;2022-09-12T08:34:58;97496.56;;;15.78;84.19
71889;BME280;59762;49.998;14.858;2022-09-12T08:37:24;97500.16;;;16.05;81.48
71889;BME280;59762;49.998;14.858;2022-09-12T08:39:49;97501.56;;;16.30;80.62
71889;BME280;59762;49.998;14.858;2022-09-12T08:42:33;97506.31;;;16.23;79.77
71889;BME280;59762;49.998;14.858;2022-09-12T08:47:58;97494.84;;;16.54;80.13
71889;BME280;59762;49.998;14.858;2022-09-12T08:50:26;97498.50;;;16.65;78.76
71889;BME280;59762;49.998;14.858;2022-09-12T08:52:57;97492.00;;;16.61;79.40
71889;BME280;59762;49.998;14.858;2022-09-12T08:57:56;97486.94;;;16.64;79.32
71889;BME280;59762;49.998;14.858;2022-09-12T09:00:22;97489.03;;;16.62;77.81
71889;BME280;59762;49.998;14.858;2022-09-12T09:05:50;97494.44;;;16.19;79.06
71889;BME280;59762;49.998;14.858;2022-09-12T09:11:22;97491.25;;;15.83;79.27
71889;BME280;59762;49.998;14.858;2022-09-12T09:14:28;97491.09;;;15.89;79.79
71889;BME280;59762;49.998;14.858;2022-09-12T09:17:18;97495.72;;;15.94;78.56
71889;BME280;59762;49.998;14.858;2022-09-12T09:19:49;97490.53;;;16.09;80.43
71889;BME280;59762;49.998;14.858;2022-09-12T09:22:31;97487.97;;;15.98;82.74
71889;BME280;59762;49.998;14.858;2022-09-12T09:25:08;97489.63;;;15.82;82.47
71889;BME280;59762;49.998;14.858;2022-09-12T09:27:42;97486.69;;;15.83;82.51
71889;BME280;59762;49.998;14.858;2022-09-12T09:30:17;97483.06;;;16.11;78.37
71889;BME280;59762;49.998;14.858;2022-09-12T09:32:48;97475.22;;;16.10;77.50
71889;BME280;59762;49.998;14.858;2022-09-12T09:35:46;97474.81;;;16.18;77.21
71889;BME280;59762;49.998;14.858;2022-09-12T09:40:52;97476.56;;;16.07;76.98
71889;BME280;59762;49.998;14.858;2022-09-12T09:43:23;97473.94;;;16.12;79.22
71889;BME280;59762;49.998;14.858;2022-09-12T09:45:51;97472.38;;;16.17;77.37
71889;BME280;59762;49.998;14.858;2022-09-12T09:48:35;97474.16;;;16.33;78.33
71889;BME280;59762;49.998;14.858;2022-09-12T09:51:03;97463.03;;;16.46;78.31
71889;BME280;59762;49.998;14.858;2022-09-12T09:56:10;97464.03;;;17.16;72.69
71889;BME280;59762;49.998;14.858;2022-09-12T09:58:38;97465.81;;;17.32;71.42
71889;BME280;59762;49.998;14.858;2022-09-12T10:01:05;97463.66;;;17.72;68.93
71889;BME280;59762;49.998;14.858;2022-09-12T10:03:37;97457.75;;;17.75;70.80
71889;BME280;59762;49.998;14.858;2022-09-12T10:06:22;97460.50;;;17.80;70.59
71889;BME280;59762;49.998;14.858;2022-09-12T10:08:49;97466.22;;;17.56;69.42
71889;BME280;59762;49.998;14.858;2022-09-12T10:13:51;97462.25;;;17.27;67.68
71889;BME280;59762;49.998;14.858;2022-09-12T10:16:32;97461.69;;;17.25;67.52
71889;BME280;59762;49.998;14.858;2022-09-12T10:19:00;97461.16;;;17.23;68.37
71889;BME280;59762;49.998;14.858;2022-09-12T10:21:33;97464.84;;;17.17;71.60
71889;BME280;59762;49.998;14.858;2022-09-12T10:27:19;97461.19;;;16.96;70.86
71889;BME280;59762;49.998;14.858;2022-09-12T10:30:00;97454.78;;;17.02;70.57
71889;BME280;59762;49.998;14.858;2022-09-12T10:32:38;97462.44;;;17.15;71.09
71889;BME280;59762;49.998;14.858;2022-09-12T10:35:18;97453.91;;;16.96;71.00
71889;BME280;59762;49.998;14.858;2022-09-12T10:38:14;97461.06;;;16.85;75.57
71889;BME280;59762;49.998;14.858;2022-09-12T10:40:42;97454.28;;;16.78;64.08
71889;BME280;59762;49.998;14.858;2022-09-12T10:43:36;97453.41;;;17.31;66.02
71889;BME280;59762;49.998;14.858;2022-09-12T10:48:44;97455.34;;;17.36;67.45
71889;BME280;59762;49.998;14.858;2022-09-12T10:53:48;97454.50;;;17.73;70.02
71889;BME280;59762;49.998;14.858;2022-09-12T10:56:20;97450.78;;;17.79;69.41
71889;BME280;59762;49.998;14.858;2022-09-12T11:04:14;97446.59;;;17.93;66.25
71889;BME280;59762;49.998;14.858;2022-09-12T11:06:53;97441.13;;;17.83;65.21
71889;BME280;59762;49.998;14.858;2022-09-12T11:09:31;97443.91;;;17.98;63.57
71889;BME280;59762;49.998;14.858;2022-09-12T11:12:25;97432.53;;;17.91;60.31
71889;BME280;59762;49.998;14.858;2022-09-12T11:15:04;97439.03;;;17.95;64.43
71889;BME280;59762;49.998;14.858;2022-09-12T11:17:46;97438.22;;;17.95;67.10
71889;BME280;59762;49.998;14.858;2022-09-12T11:25:56;97438.03;;;17.27;61.01
71889;BME280;59762;49.998;14.858;2022-09-12T11:28:38;97441.47;;;17.54;65.45
71889;BME280;59762;49.998;14.858;2022-09-12T11:34:18;97438.50;;;17.93;62.38
71889;BME280;59762;49.998;14.858;2022-09-12T11:39:42;97441.34;;;18.29;61.02
71889;BME280;59762;49.998;14.858;2022-09-12T11:42:16;97433.28;;;18.44;59.78
71889;BME280;59762;49.998;14.858;2022-09-12T11:44:46;97439.81;;;18.58;58.16
71889;BME280;59762;49.998;14.858;2022-09-12T11:47:15;97435.47;;;18.52;56.98
71889;BME280;59762;49.998;14.858;2022-09-12T11:49:46;97439.47;;;18.34;56.71
71889;BME280;59762;49.998;14.858;2022-09-12T11:52:23;97437.59;;;18.40;59.50
71889;BME280;59762;49.998;14.858;2022-09-12T11:54:55;97437.00;;;18.28;58.76
71889;BME280;59762;49.998;14.858;2022-09-12T11:57:34;97434.78;;;18.14;57.34
71889;BME280;59762;49.998;14.858;2022-09-12T12:02:39;97436.44;;;17.73;55.28
71889;BME280;59762;49.998;14.858;2022-09-12T12:07:41;97440.03;;;17.42;57.15
71889;BME280;59762;49.998;14.858;2022-09-12T12:12:56;97437.03;;;17.38;60.28
71889;BME280;59762;49.998;14.858;2022-09-12T12:15:24;97432.59;;;17.59;58.97
71889;BME280;59762;49.998;14.858;2022-09-12T12:18:04;97436.81;;;17.82;55.98
71889;BME280;59762;49.998;14.858;2022-09-12T12:20:30;97428.75;;;17.87;56.07
71889;BME280;59762;49.998;14.858;2022-09-12T12:22:56;97419.34;;;17.89;56.22
71889;BME280;59762;49.998;14.858;2022-09-12T12:25:37;97420.09;;;17.80;55.48
71889;BME280;59762;49.998;14.858;2022-09-12T12:28:04;97406.91;;;17.83;57.84
71889;BME280;59762;49.998;14.858;2022-09-12T12:33:00;97414.25;;;17.93;56.09
71889;BME280;59762;49.998;14.858;2022-09-12T12:43:49;97394.00;;;17.85;58.13
71889;BME280;59762;49.998;14.858;2022-09-12T12:46:17;97381.94;;;18.03;57.32
71889;BME280;59762;49.998;14.858;2022-09-12T12:57:51;97389.94;;;17.88;52.76
71889;BME280;59762;49.998;14.858;2022-09-12T13:00:27;97391.63;;;18.04;53.01
71889;BME280;59762;49.998;14.858;2022-09-12T13:05:26;97396.69;;;17.85;53.97
71889;BME280;59762;49.998;14.858;2022-09-12T13:07:57;97390.50;;;17.90;53.51
71889;BME280;59762;49.998;14.858;2022-09-12T13:10:28;97380.34;;;18.12;52.23
71889;BME280;59762;49.998;14.858;2022-09-12T13:13:00;97387.44;;;18.29;51.25
71889;BME280;59762;49.998;14.858;2022-09-12T13:18:13;97379.38;;;18.54;50.67
71889;BME280;59762;49.998;14.858;2022-09-12T13:23:30;97384.56;;;19.12;52.41
71889;BME280;59762;49.998;14.858;2022-09-12T13:25:58;97388.34;;;19.11;52.01
71889;BME280;59762;49.998;14.858;2022-09-12T13:28:26;97374.31;;;19.24;48.82
71889;BME280;59762;49.998;14.858;2022-09-12T13:44:11;97358.88;;;19.50;52.60
71889;BME280;59762;49.998;14.858;2022-09-12T13:46:39;97356.44;;;19.38;51.20
71889;BME280;59762;49.998;14.858;2022-09-12T13:49:31;97359.47;;;19.27;49.31
71889;BME280;59762;49.998;14.858;2022-09-12T13:52:01;97362.69;;;19.24;52.96
71889;BME280;59762;49.998;14.858;2022-09-12T13:54:27;97363.00;;;18.86;50.60
71889;BME280;59762;49.998;14.858;2022-09-12T13:56:54;97354.84;;;18.61;52.55
71889;BME280;59762;49.998;14.858;2022-09-12T13:59:20;97359.97;;;18.47;54.90
71889;BME280;59762;49.998;14.858;2022-09-12T14:01:46;97353.47;;;18.48;53.50
71889;BME280;59762;49.998;14.858;2022-09-12T14:04:21;97356.19;;;18.53;53.18
71889;BME280;59762;49.998;14.858;2022-09-12T14:09:39;97358.13;;;18.78;55.83
71889;BME280;59762;49.998;14.858;2022-09-12T14:12:13;97352.44;;;18.90;53.89
71889;BME280;59762;49.998;14.858;2022-09-12T14:14:47;97351.41;;;18.86;50.80
71889;BME280;59762;49.998;14.858;2022-09-12T14:17:15;97350.28;;;19.02;50.92
71889;BME280;59762;49.998;14.858;2022-09-12T14:19:42;97348.94;;;19.10;51.89
71889;BME280;59762;49.998;14.858;2022-09-12T14:22:11;97347.88;;;19.06;49.41
71889;BME280;59762;49.998;14.858;2022-09-12T14:24:46;97344.91;;;18.87;49.67
71889;BME280;59762;49.998;14.858;2022-09-12T14:27:22;97338.16;;;18.89;51.26
71889;BME280;59762;49.998;14.858;2022-09-12T14:30:22;97341.94;;;18.99;48.92
71889;BME280;59762;49.998;14.858;2022-09-12T14:33:12;97333.00;;;19.03;50.40
71889;BME280;59762;49.998;14.858;2022-09-12T14:35:42;97328.72;;;18.97;52.04
71889;BME280;59762;49.998;14.858;2022-09-12T14:43:17;97329.75;;;18.65;51.40
71889;BME280;59762;49.998;14.858;2022-09-12T14:45:51;97331.38;;;18.61;52.50
71889;BME280;59762;49.998;14.858;2022-09-12T14:48:18;97328.94;;;18.50;51.61
71889;BME280;59762;49.998;14.858;2022-09-12T14:50:47;97326.75;;;18.41;53.75
71889;BME280;59762;49.998;14.858;2022-09-12T14:55:50;97326.44;;;18.02;52.34
71889;BME280;59762;49.998;14.858;2022-09-12T15:05:54;97322.25;;;17.74;55.71
71889;BME280;59762;49.998;14.858;2022-09-12T15:08:20;97318.72;;;17.69;53.96
71889;BME280;59762;49.998;14.858;2022-09-12T15:10:46;97320.88;;;17.67;55.32
71889;BME280;59762;49.998;14.858;2022-09-12T15:13:15;97325.16;;;17.62;53.94
71889;BME280;59762;49.998;14.858;2022-09-12T15:15:43;97308.72;;;17.59;53.23
71889;BME280;59762;49.998;14.858;2022-09-12T15:18:09;97313.78;;;17.50;54.43
71889;BME280;59762;49.998;14.858;2022-09-12T15:20:37;97320.25;;;17.49;56.41
71889;BME280;59762;49.998;14.858;2022-09-12T15:23:05;97315.59;;;17.39;56.23
71889;BME280;59762;49.998;14.858;2022-09-12T15:25:32;97320.44;;;17.32;56.91
71889;BME280;59762;49.998;14.858;2022-09-12T15:27:59;97315.53;;;17.24;60.04
71889;BME280;59762;49.998;14.858;2022-09-12T15:30:24;97323.81;;;17.18;59.24
71889;BME280;59762;49.998;14.858;2022-09-12T15:32:50;97321.91;;;17.13;60.19
71889;BME280;59762;49.998;14.858;2022-09-12T15:35:18;97320.84;;;17.09;59.55
71889;BME280;59762;49.998;14.858;2022-09-12T15:37:45;97327.53;;;17.06;61.04